Flight Track Log - Related Links

Times and Time Zones

All times are in EDT time to prevent confusion due to time zone crossing. See the UAL5881 flight status page for this flight to view local times or setup timezone preferences in your user account.

Time Position Orientation Groundspeed Altitude Reporting Facility
EDT Latitude Longitude Course Direction KTS MPH feet Rate Location/Type
Sat 12:16:48 PM 44.8500 -93.2000 117° Southeast 177 204 2,400  Level Minneapolis TRACON
Sat 12:18:16 PM 44.8156 -93.0958 115° Southeast 230 265 5,100 1,760 Climbing Minneapolis Center
Sat 12:19:00 PM 44.6664 -92.7917 111° Southeast  Level Estimated
Sat 12:19:18 PM 44.7883 -92.9989 112° Southeast 267 307 6,800  Level Minneapolis Center
Sat 12:20:00 PM 44.6123 -92.6846 113° Southeast  Level Estimated
Sat 12:20:19 PM 44.7586 -92.8958 112° Southeast 281 323 8,900  Level Minneapolis Center
Sat 12:21:00 PM 44.6361 -92.5577 75° East  Level FlightAware Approximate
Sat 12:21:21 PM 44.7269 -92.7911 113° Southeast 293 337 10,500  Level Minneapolis Center
Sat 12:22:00 PM 44.5781 -92.4478 117° Southeast  Level Estimated
Sat 12:22:23 PM 44.6850 -92.6456 112° Southeast 338 389 11,900  Level Minneapolis Center
Sat 12:23:25 PM 44.6467 -92.5136 112° Southeast 366 421 12,900 1,113 Climbing Minneapolis Center
Sat 12:24:27 PM 44.6061 -92.3781 113° Southeast 376 433 14,200 1,268 Climbing Minneapolis Center
Sat 12:25:28 PM 44.5653 -92.2431 113° Southeast 378 435 15,500 1,268 Climbing Minneapolis Center
Sat 12:26:30 PM 44.5086 -92.1200 123° Southeast 377 434 16,800 1,210 Climbing Minneapolis Center
Sat 12:27:32 PM 44.4478 -92.0025 126° Southeast 374 430 18,000 1,122 Climbing Minneapolis Center
Sat 12:28:33 PM 44.3853 -91.8822 126° Southeast 381 438 19,100 1,171 Climbing Minneapolis Center
Sat 12:29:35 PM 44.3211 -91.7222 119° Southeast 395 455 20,400 1,161 Climbing Minneapolis Center
Sat 12:30:37 PM 44.2689 -91.5847 118° Southeast 401 461 21,500 1,065 Climbing Minneapolis Center
Sat 12:31:39 PM 44.2153 -91.4469 118° Southeast 403 464 22,600 1,073 Climbing Minneapolis Center
Sat 12:32:40 PM 44.1633 -91.3089 118° Southeast 404 465 23,700 1,073 Climbing Minneapolis Center
Sat 12:33:42 PM 44.1081 -91.1669 118° Southeast 405 466 24,800 629 Climbing Minneapolis Center
Sat 12:34:44 PM 44.0542 -91.0297 119° Southeast 406 467 25,000 97 Climbing Minneapolis Center
Sat 12:35:46 PM 43.9964 -90.8806 118° Southeast 433 498 25,000  Level Minneapolis Center
Sat 12:36:48 PM 43.9364 -90.7261 118° Southeast 454 522 25,000  Level Minneapolis Center
Sat 12:37:49 PM 43.8600 -90.5342 119° Southeast 462 532 25,000  Level Minneapolis Center
Sat 12:38:20 PM 43.8367 -90.4778 120° Southeast 465 535 25,000 -387 Level Chicago Center
Sat 12:39:22 PM 43.7656 -90.3281 123° Southeast 467 537 24,400 -645 Descending Chicago Center
Sat 12:39:53 PM 43.7156 -90.2461 130° Southeast 466 536 24,000 -229 Descending Minneapolis Center
Sat 12:41:07 PM 43.6172 -90.0914 131° Southeast 446 513 24,000 -176 Level Minneapolis Center
Sat 12:42:09 PM 43.5372 -89.9600 130° Southeast 446 513 23,600 -726 Descending Minneapolis Center
Sat 12:43:11 PM 43.4392 -89.8044 131° Southeast 459 528 22,500 -968 Descending Minneapolis Center
Sat 12:44:13 PM 43.3569 -89.6736 131° Southeast 458 527 21,600 -919 Descending Minneapolis Center
Sat 12:45:15 PM 43.2756 -89.5456 131° Southeast 451 519 20,600 -976 Descending Minneapolis Center
Sat 12:46:16 PM 43.1956 -89.4203 131° Southeast 442 509 19,600 -1,122 Descending Minneapolis Center
Sat 12:47:18 PM 43.1028 -89.3233 143° Southeast 428 493 18,300 -2,113 Descending Minneapolis Center
Sat 12:48:38 PM 42.9633 -89.2672 164° South 394 453 14,600 -2,239 Descending Chicago Center
Sat 12:49:40 PM 42.8450 -89.2189 163° South 384 442 13,000 -823 Descending Chicago Center
Sat 12:50:42 PM 42.7692 -89.1194 136° Southeast 380 437 12,900 -48 Descending Chicago Center
Sat 12:51:44 PM 42.6978 -89.0086 131° Southeast 387 445 12,900 -242 Level Chicago Center
Sat 12:52:46 PM 42.6236 -88.8892 130° Southeast 409 471 12,400 -927 Descending Chicago Center
Sat 12:53:47 PM 42.5514 -88.7756 131° Southeast 401 461 11,000 -1,220 Descending Chicago Center
Sat 12:54:49 PM 42.4836 -88.6694 131° Southeast 378 435 9,900 -484 Descending Chicago Center
Sat 12:55:51 PM 42.4100 -88.5558 131° Southeast 350 403 10,000 48 Climbing Chicago Center
Sat 12:56:53 PM 42.3572 -88.4361 121° Southeast 380 437 10,000  Level Chicago Center
Sat 12:57:55 PM 42.3039 -88.3272 123° Southeast 371 427 10,000 -532 Level Chicago Center
Sat 12:58:57 PM 42.2483 -88.2361 129° Southeast 322 371 8,900 -1,415 Descending Chicago Center
Sat 12:59:58 PM 42.1833 -88.1389 132° Southeast 297 342 7,100 -912 Descending Chicago Center
Sat 01:01:02 PM 42.1167 -88.0833 148° Southeast 277 319 7,000 -48 Descending Chicago TRACON
Sat 01:02:02 PM 42.0500 -88.0167 143° Southeast 285 328 7,000  Level Chicago TRACON
Sat 01:02:56 PM 42.0000 -87.9500 135° Southeast 276 318 7,000  Level Chicago TRACON
Sat 01:03:56 PM 41.9500 -87.8833 135° Southeast 255 293 7,000 -53 Level Chicago TRACON
Sat 01:04:50 PM 41.9167 -87.8167 124° Southeast 266 306 6,900 -579 Descending Chicago TRACON
Sat 01:05:50 PM 41.8833 -87.7333 118° Southeast 252 290 5,900 -1,100 Descending Chicago TRACON
Sat 01:06:50 PM 41.9167 -87.6667 56° Northeast 242 278 4,700 -1,438 Descending Chicago TRACON
Sat 01:07:51 PM 41.9500 -87.7167 312° West 215 247 3,000 -1,289 Descending Chicago TRACON
Sat 01:08:51 PM 41.9667 -87.8000 285° West 188 216 2,100 -895 Descending Chicago TRACON
Sat 01:09:45 PM 41.9667 -87.8500 270° West 145 167 1,300 -698 Descending Chicago TRACON
Sat 01:10:17 PM 41.9681 -87.8678 276° West 170 196 1,100 -375 Descending Chicago Center

Login

Don't have an account? Register now (free) for customized features, flight alerts, and more!